Time;durP1;ratioP1;P1;durP2;ratioP2;P2;SDS_P1;SDS_P2;PMS_P1;PMS_P2;Temp;Humidity;BMP_temperature;BMP_pressure;BME280_temperature;BME280_humidity;BME280_pressure;Samples;Min_cycle;Max_cycle;Signal;HPM_P1;HPM_P2
2023/04/16 00:01:21;;;;;;;;;;;;;;;-140.72;100.00;52802.78;5022866;28;19921;-69
2023/04/16 00:03:46;;;;;;;;;;;;;;;-140.72;100.00;52817.00;5025725;28;19921;-69
2023/04/16 00:06:11;;;;;;;;;;;;;;;-140.72;100.00;52798.72;5025726;28;19957;-69
2023/04/16 00:08:36;;;;;;;;;;;;;;;-140.72;100.00;52786.56;5018478;28;19971;-69
2023/04/16 00:11:02;;;;;;;;;;;;;;;-140.72;100.00;52814.97;5023019;27;19921;-68
2023/04/16 00:13:27;;;;;;;;;;;;;;;-140.72;100.00;52804.81;5023100;28;20391;-69
2023/04/16 00:15:52;;;;;;;;;;;;;;;-140.72;100.00;52843.38;5033331;28;20020;-69
2023/04/16 00:18:19;;;;;;;;;;;;;;;-140.72;100.00;52814.97;5024675;28;19963;-69
2023/04/16 00:20:44;;;;;;;;;;;;;;;-140.72;100.00;52814.97;5028880;28;19917;-69
2023/04/16 00:23:10;;;;;;;;;;;;;;;-140.72;100.00;52796.72;5031402;28;19917;-69
2023/04/16 00:25:35;;;;;;;;;;;;;;;-140.72;100.00;52821.06;5027714;28;19925;-69
2023/04/16 00:28:00;;;;;;;;;;;;;;;-140.72;100.00;52817.00;5023671;28;19968;-69
2023/04/16 00:30:25;;;;;;;;;;;;;;;-140.72;100.00;52853.53;5018721;28;19921;-69
2023/04/16 00:32:51;;;;;;;;;;;;;;;-140.72;100.00;52845.41;5030892;28;20393;-69
2023/04/16 00:35:16;;;;;;;;;;;;;;;-140.72;100.00;52865.69;5027280;28;20554;-68
2023/04/16 00:37:41;;;;;;;;;;;;;;;-140.72;100.00;52804.81;5024111;28;20012;-69
2023/04/16 00:40:22;;;;;;;;;;;;;;;-140.72;100.00;52804.81;5021733;28;20375;-69
2023/04/16 00:42:47;;;;;;;;;;;;;;;-140.72;100.00;52821.06;5028652;28;20579;-69
2023/04/16 00:45:13;;;;;;;;;;;;;;;-140.72;100.00;52857.59;5029978;28;19918;-69
2023/04/16 00:47:38;;;;;;;;;;;;;;;-140.72;100.00;52812.94;5028309;28;19917;-69
2023/04/16 00:50:03;;;;;;;;;;;;;;;-140.72;100.00;52802.78;5023230;28;19956;-68
2023/04/16 00:52:30;;;;;;;;;;;;;;;-140.72;100.00;52829.19;5021996;28;20012;-69
2023/04/16 00:55:05;;;;;;;;;;;;;;;-140.72;100.00;52851.50;5019132;28;19943;-69
2023/04/16 00:57:31;;;;;;;;;;;;;;;-140.72;100.00;52802.78;5024303;28;19929;-69
2023/04/16 01:00:17;;;;;;;;;;;;;;;-140.72;100.00;52808.88;5022136;28;20252;-72
2023/04/16 01:02:42;;;;;;;;;;;;;;;-140.72;100.00;52829.19;5019074;28;19922;-70
2023/04/16 01:05:08;;;;;;;;;;;;;;;-140.72;100.00;52847.44;5025627;28;19917;-69
2023/04/16 01:07:33;;;;;;;;;;;;;;;-140.72;100.00;52800.75;5024785;28;19917;-69
2023/04/16 01:09:58;;;;;;;;;;;;;;;-140.72;100.00;52821.06;5026131;28;19917;-69
2023/04/16 01:12:23;;;;;;;;;;;;;;;-140.72;100.00;52819.03;5024504;28;19937;-70
2023/04/16 01:14:49;;;;;;;;;;;;;;;-140.72;100.00;52857.59;5022507;28;19952;-69
2023/04/16 01:17:14;;;;;;;;;;;;;;;-140.72;100.00;52831.19;5025507;28;20363;-69
2023/04/16 01:19:39;;;;;;;;;;;;;;;-140.72;100.00;52823.09;5023642;28;19917;-69
2023/04/16 01:22:22;;;;;;;;;;;;;;;-140.72;100.00;52857.59;5021862;28;19917;-70
2023/04/16 01:24:48;;;;;;;;;;;;;;;-140.72;100.00;52843.38;5018999;28;19917;-69
2023/04/16 01:27:24;;;;;;;;;;;;;;;-140.72;100.00;52833.22;5022124;28;19940;-70
2023/04/16 01:29:50;;;;;;;;;;;;;;;-140.72;100.00;52817.00;5018622;28;20619;-69
2023/04/16 01:32:15;;;;;;;;;;;;;;;-140.72;100.00;52819.03;5029428;28;19933;-69
2023/04/16 01:34:40;;;;;;;;;;;;;;;-140.72;100.00;52812.94;5023550;28;20339;-69
2023/04/16 01:37:05;;;;;;;;;;;;;;;-140.72;100.00;52814.97;5023450;28;20398;-69
2023/04/16 01:39:31;;;;;;;;;;;;;;;-140.72;100.00;52863.66;5020316;28;19929;-69
2023/04/16 01:41:56;;;;;;;;;;;;;;;-140.72;100.00;52851.50;5027768;28;20001;-69
2023/04/16 01:44:22;;;;;;;;;;;;;;;-140.72;100.00;52819.03;5022134;28;19952;-69
2023/04/16 01:46:47;;;;;;;;;;;;;;;-140.72;100.00;52810.91;5023929;28;19924;-69
2023/04/16 01:49:12;;;;;;;;;;;;;;;-140.72;100.00;52831.19;5021566;28;19917;-69
2023/04/16 01:51:37;;;;;;;;;;;;;;;-140.72;100.00;52867.72;5022598;28;20003;-69
2023/04/16 01:54:03;;;;;;;;;;;;;;;-140.72;100.00;52835.25;5022970;28;20572;-69
2023/04/16 01:56:28;;;;;;;;;;;;;;;-140.72;100.00;52833.22;5022876;28;19925;-69
2023/04/16 01:58:53;;;;;;;;;;;;;;;-140.72;100.00;52867.72;5034133;27;19917;-68
2023/04/16 02:01:19;;;;;;;;;;;;;;;-140.72;100.00;52845.41;5020488;28;19962;-68
2023/04/16 02:03:44;;;;;;;;;;;;;;;-140.72;100.00;52819.03;5024210;28;19921;-69
2023/04/16 02:06:09;;;;;;;;;;;;;;;-140.72;100.00;52823.09;5020433;28;19932;-69
2023/04/16 02:08:35;;;;;;;;;;;;;;;-140.72;100.00;52827.16;5023171;28;20368;-68
2023/04/16 02:11:00;;;;;;;;;;;;;;;-140.72;100.00;52833.22;5017026;28;19925;-68
2023/04/16 02:13:25;;;;;;;;;;;;;;;-140.72;100.00;52804.81;5023770;28;19921;-69
2023/04/16 02:15:51;;;;;;;;;;;;;;;-140.72;100.00;52886.00;5022761;28;19928;-69
2023/04/16 02:18:16;;;;;;;;;;;;;;;-140.72;100.00;52825.13;5026680;28;19924;-69
2023/04/16 02:20:42;;;;;;;;;;;;;;;-140.72;100.00;52855.56;5018919;28;19918;-69
2023/04/16 02:23:08;;;;;;;;;;;;;;;-140.72;100.00;52833.22;5029896;28;20379;-69
2023/04/16 02:25:43;;;;;;;;;;;;;;;-140.72;100.00;52814.97;5021031;28;20359;-69
2023/04/16 02:28:09;;;;;;;;;;;;;;;-140.72;100.00;52817.00;5021688;28;20383;-69
2023/04/16 02:30:38;;;;;;;;;;;;;;;-140.72;100.00;52869.75;5020883;28;19921;-69
2023/04/16 02:33:06;;;;;;;;;;;;;;;-140.72;100.00;52867.72;5024276;28;19917;-69
2023/04/16 02:35:31;;;;;;;;;;;;;;;-140.72;100.00;52845.41;5020764;28;20403;-69
2023/04/16 02:37:56;;;;;;;;;;;;;;;-140.72;100.00;52821.06;5019216;28;19917;-69
2023/04/16 02:40:22;;;;;;;;;;;;;;;-140.72;100.00;52812.94;5021931;28;19920;-69
2023/04/16 02:45:50;;;;;;;;;;;;;;;-140.72;100.00;52829.19;5024422;28;20005;-69
2023/04/16 02:48:15;;;;;;;;;;;;;;;-140.72;100.00;52853.53;5020603;28;20384;-69
2023/04/16 02:50:40;;;;;;;;;;;;;;;-140.72;100.00;52810.91;5022837;28;20003;-69
2023/04/16 02:53:06;;;;;;;;;;;;;;;-140.72;100.00;52845.41;5028853;28;19921;-69
2023/04/16 02:55:31;;;;;;;;;;;;;;;-140.72;100.00;52829.19;5031342;28;19921;-69
2023/04/16 02:57:57;;;;;;;;;;;;;;;-140.72;100.00;52814.97;5018070;28;20371;-69
2023/04/16 03:00:22;;;;;;;;;;;;;;;-140.72;100.00;52829.19;5031165;28;19917;-69
2023/04/16 03:02:47;;;;;;;;;;;;;;;-140.72;100.00;52817.00;5030968;28;19920;-69
2023/04/16 03:05:12;;;;;;;;;;;;;;;-140.72;100.00;52886.00;5026872;28;19979;-69
2023/04/16 03:07:39;;;;;;;;;;;;;;;-140.72;100.00;52843.38;5022114;28;19960;-69
2023/04/16 03:10:05;;;;;;;;;;;;;;;-140.72;100.00;52851.50;5020930;28;19974;-69
2023/04/16 03:12:30;;;;;;;;;;;;;;;-140.72;100.00;52825.13;5024147;28;20395;-69
2023/04/16 03:14:56;;;;;;;;;;;;;;;-140.72;100.00;52835.25;5025792;28;20017;-69
2023/04/16 03:17:21;;;;;;;;;;;;;;;-140.72;100.00;52814.97;5022061;28;20046;-69
2023/04/16 03:19:46;;;;;;;;;;;;;;;-140.72;100.00;52827.16;5039892;28;19921;-69
2023/04/16 03:22:12;;;;;;;;;;;;;;;-140.72;100.00;52898.16;5032309;28;19917;-69
2023/04/16 03:24:37;;;;;;;;;;;;;;;-140.72;100.00;52810.91;5029861;28;19921;-69
2023/04/16 03:27:02;;;;;;;;;;;;;;;-140.72;100.00;52857.59;5021144;28;19982;-69
2023/04/16 03:29:27;;;;;;;;;;;;;;;-140.72;100.00;52841.34;5027237;28;19921;-69
2023/04/16 03:31:52;;;;;;;;;;;;;;;-140.72;100.00;52877.88;5023185;28;19924;-70
2023/04/16 03:34:18;;;;;;;;;;;;;;;-140.72;100.00;52851.50;5015810;28;19918;-69
2023/04/16 03:36:43;;;;;;;;;;;;;;;-140.72;100.00;52847.44;5027047;28;19950;-69
2023/04/16 03:39:08;;;;;;;;;;;;;;;-140.72;100.00;52833.22;5024237;28;19981;-69
2023/04/16 03:41:33;;;;;;;;;;;;;;;-140.72;100.00;52810.91;5028871;28;19917;-69
2023/04/16 03:43:58;;;;;;;;;;;;;;;-140.72;100.00;52873.81;5030505;28;19921;-70
2023/04/16 03:46:24;;;;;;;;;;;;;;;-140.72;100.00;52853.53;5027281;28;20028;-70
2023/04/16 03:48:49;;;;;;;;;;;;;;;-140.72;100.00;52849.47;5026465;28;19917;-69
2023/04/16 03:51:15;;;;;;;;;;;;;;;-140.72;100.00;52841.34;5022075;28;20291;-69
2023/04/16 03:53:40;;;;;;;;;;;;;;;-140.72;100.00;52823.09;5068475;28;20012;-69
2023/04/16 03:56:05;;;;;;;;;;;;;;;-140.72;100.00;52863.66;5022237;28;19936;-70
2023/04/16 03:58:30;;;;;;;;;;;;;;;-140.72;100.00;52849.47;5023491;28;19945;-70
2023/04/16 04:00:55;;;;;;;;;;;;;;;-140.72;100.00;52859.63;5020268;28;20055;-69
2023/04/16 04:03:21;;;;;;;;;;;;;;;-140.72;100.00;52825.13;5020611;28;20008;-70
2023/04/16 04:05:46;;;;;;;;;;;;;;;-140.72;100.00;52851.50;5022571;28;20028;-70
2023/04/16 04:08:11;;;;;;;;;;;;;;;-140.72;100.00;52867.72;5017922;28;19917;-69
2023/04/16 04:10:36;;;;;;;;;;;;;;;-140.72;100.00;52849.47;5020814;28;19922;-70
2023/04/16 04:13:02;;;;;;;;;;;;;;;-140.72;100.00;52831.19;5016591;28;19917;-70
2023/04/16 04:15:28;;;;;;;;;;;;;;;-140.72;100.00;52819.03;5019010;28;19917;-70
2023/04/16 04:17:53;;;;;;;;;;;;;;;-140.72;100.00;52833.22;5025930;28;20024;-70
2023/04/16 04:20:18;;;;;;;;;;;;;;;-140.72;100.00;52853.53;5019394;28;19917;-70
2023/04/16 04:22:43;;;;;;;;;;;;;;;-140.72;100.00;52869.75;5010787;28;19951;-70
2023/04/16 04:25:09;;;;;;;;;;;;;;;-140.72;100.00;52877.88;5022238;28;19918;-71
2023/04/16 04:27:34;;;;;;;;;;;;;;;-140.72;100.00;52831.19;5029287;28;19925;-70
2023/04/16 04:29:59;;;;;;;;;;;;;;;-140.72;100.00;52881.94;5031171;28;19966;-70
2023/04/16 04:32:25;;;;;;;;;;;;;;;-140.72;100.00;52825.13;5027027;28;19925;-69
2023/04/16 04:34:50;;;;;;;;;;;;;;;-140.72;100.00;52831.19;5019261;28;20307;-69
2023/04/16 04:37:15;;;;;;;;;;;;;;;-140.72;100.00;52865.69;5014142;28;19921;-69
2023/04/16 04:39:40;;;;;;;;;;;;;;;-140.72;100.00;52819.03;5018776;28;19921;-69
2023/04/16 04:42:06;;;;;;;;;;;;;;;-140.72;100.00;52861.66;5023229;28;19921;-70
2023/04/16 04:44:31;;;;;;;;;;;;;;;-140.72;100.00;52875.84;5033406;28;19928;-70
2023/04/16 04:46:56;;;;;;;;;;;;;;;-140.72;100.00;52873.81;5030548;28;19924;-69
2023/04/16 04:49:21;;;;;;;;;;;;;;;-140.72;100.00;52812.94;5032022;28;20328;-70
2023/04/16 04:51:47;;;;;;;;;;;;;;;-140.72;100.00;52841.34;5038719;28;19962;-69
2023/04/16 04:54:12;;;;;;;;;;;;;;;-140.72;100.00;52841.34;5020486;28;19961;-70
2023/04/16 04:56:37;;;;;;;;;;;;;;;-140.72;100.00;52871.78;5033028;28;19921;-70
2023/04/16 04:59:02;;;;;;;;;;;;;;;-140.72;100.00;52835.25;5032542;28;19917;-70
2023/04/16 05:01:28;;;;;;;;;;;;;;;-140.72;100.00;52853.53;5016755;28;19917;-70
2023/04/16 05:03:53;;;;;;;;;;;;;;;-140.72;100.00;52837.28;5046100;28;19927;-70
2023/04/16 05:06:18;;;;;;;;;;;;;;;-140.72;100.00;52890.06;5025795;28;19921;-71
2023/04/16 05:08:43;;;;;;;;;;;;;;;-140.72;100.00;52857.59;5016570;28;19924;-69
2023/04/16 05:11:09;;;;;;;;;;;;;;;-140.72;100.00;52857.59;5030377;28;20002;-69
2023/04/16 05:13:34;;;;;;;;;;;;;;;-140.72;100.00;52855.56;5031975;28;20007;-70
2023/04/16 05:16:00;;;;;;;;;;;;;;;-140.72;100.00;52859.63;5027845;28;19918;-69
2023/04/16 05:18:25;;;;;;;;;;;;;;;-140.72;100.00;52857.59;5031911;28;19932;-69
2023/04/16 05:20:50;;;;;;;;;;;;;;;-140.72;100.00;52857.59;5027557;28;20307;-69
2023/04/16 05:23:16;;;;;;;;;;;;;;;-140.72;100.00;52819.03;5021801;28;19960;-70
2023/04/16 05:25:41;;;;;;;;;;;;;;;-140.72;100.00;52886.00;5031960;28;19928;-70
2023/04/16 05:28:06;;;;;;;;;;;;;;;-140.72;100.00;52845.41;5036745;28;19924;-70
2023/04/16 05:30:31;;;;;;;;;;;;;;;-140.72;100.00;52821.06;5030912;28;19928;-69
2023/04/16 05:32:56;;;;;;;;;;;;;;;-140.72;100.00;52817.00;5032548;28;19917;-69
2023/04/16 05:35:22;;;;;;;;;;;;;;;-140.72;100.00;52808.88;5030611;28;19925;-69
2023/04/16 05:37:47;;;;;;;;;;;;;;;-140.72;100.00;52829.19;5024800;28;20546;-69
2023/04/16 05:40:13;;;;;;;;;;;;;;;-140.72;100.00;52857.59;5041715;27;20302;-69
2023/04/16 05:42:38;;;;;;;;;;;;;;;-140.72;100.00;52875.84;5032356;28;20367;-69
2023/04/16 05:45:03;;;;;;;;;;;;;;;-140.72;100.00;52869.75;5027186;28;19975;-69
2023/04/16 05:47:29;;;;;;;;;;;;;;;-140.72;100.00;52843.38;5025943;28;19921;-69
2023/04/16 05:49:54;;;;;;;;;;;;;;;-140.72;100.00;52814.97;5031365;27;19966;-71
2023/04/16 05:52:19;;;;;;;;;;;;;;;-140.72;100.00;52831.19;5030562;28;20386;-69
2023/04/16 05:54:44;;;;;;;;;;;;;;;-140.72;100.00;52847.44;5029866;28;19917;-70
2023/04/16 05:57:10;;;;;;;;;;;;;;;-140.72;100.00;52849.47;5025828;28;19924;-69
2023/04/16 05:59:35;;;;;;;;;;;;;;;-140.72;100.00;52819.03;5023309;28;19924;-69
2023/04/16 06:02:00;;;;;;;;;;;;;;;-140.72;100.00;52843.38;5031927;28;19921;-69
2023/04/16 06:04:26;;;;;;;;;;;;;;;-140.72;100.00;52800.75;5031964;28;19920;-69
2023/04/16 06:06:51;;;;;;;;;;;;;;;-140.72;100.00;52833.22;5058864;28;19929;-69
2023/04/16 06:09:17;;;;;;;;;;;;;;;-140.72;100.00;52829.19;5042921;28;19935;-69
2023/04/16 06:11:43;;;;;;;;;;;;;;;-140.72;100.00;52823.09;5024678;28;20012;-69
2023/04/16 06:14:08;;;;;;;;;;;;;;;-140.72;100.00;52851.50;5020321;28;19963;-69
2023/04/16 06:16:33;;;;;;;;;;;;;;;-140.72;100.00;52859.63;5025705;28;19921;-69
2023/04/16 06:18:58;;;;;;;;;;;;;;;-140.72;100.00;52861.66;5029934;28;19959;-69
2023/04/16 06:21:25;;;;;;;;;;;;;;;-140.72;100.00;52847.44;5028093;28;19940;-69
2023/04/16 06:23:50;;;;;;;;;;;;;;;-140.72;100.00;52819.03;5030579;28;19917;-69
2023/04/16 06:26:15;;;;;;;;;;;;;;;-140.72;100.00;52835.25;5060634;28;19962;-69
2023/04/16 06:28:40;;;;;;;;;;;;;;;-140.72;100.00;52890.06;5024630;28;19925;-70
2023/04/16 06:31:05;;;;;;;;;;;;;;;-140.72;100.00;52859.63;5027476;28;19917;-70
2023/04/16 06:33:31;;;;;;;;;;;;;;;-140.72;100.00;52849.47;5040851;28;19925;-73
2023/04/16 06:35:56;;;;;;;;;;;;;;;-140.72;100.00;52851.50;5026011;28;19924;-70
2023/04/16 06:38:21;;;;;;;;;;;;;;;-140.72;100.00;52845.41;5020349;28;19913;-70
2023/04/16 06:40:47;;;;;;;;;;;;;;;-140.72;100.00;52833.22;5029236;28;19918;-69
2023/04/16 06:43:14;;;;;;;;;;;;;;;-140.72;100.00;52819.03;5024905;28;19917;-70
2023/04/16 06:45:39;;;;;;;;;;;;;;;-140.72;100.00;52817.00;5024229;28;20361;-69
2023/04/16 06:48:05;;;;;;;;;;;;;;;-140.72;100.00;52841.34;5022973;28;20022;-69
2023/04/16 06:50:30;;;;;;;;;;;;;;;-140.72;100.00;52837.28;5031039;28;20009;-70
2023/04/16 06:52:55;;;;;;;;;;;;;;;-140.72;100.00;52825.13;5029985;28;20019;-69
2023/04/16 06:55:21;;;;;;;;;;;;;;;-140.72;100.00;52841.34;5024809;28;19926;-70
2023/04/16 06:57:46;;;;;;;;;;;;;;;-140.72;100.00;52808.88;5021064;28;19925;-70
2023/04/16 07:00:11;;;;;;;;;;;;;;;-140.72;100.00;52857.59;5026457;28;20367;-69
2023/04/16 07:02:36;;;;;;;;;;;;;;;-140.72;100.00;52825.13;5027244;28;19925;-70
2023/04/16 07:05:02;;;;;;;;;;;;;;;-140.72;100.00;52814.97;5042503;28;19917;-69
2023/04/16 07:07:27;;;;;;;;;;;;;;;-140.72;100.00;52841.34;5033324;28;19962;-70
2023/04/16 07:09:52;;;;;;;;;;;;;;;-140.72;100.00;52847.44;5014461;28;19933;-70
2023/04/16 07:12:18;;;;;;;;;;;;;;;-140.72;100.00;52845.41;5018221;28;19928;-69
2023/04/16 07:14:43;;;;;;;;;;;;;;;-140.72;100.00;52853.53;5030903;28;19929;-70
2023/04/16 07:17:08;;;;;;;;;;;;;;;-140.72;100.00;52837.28;5030710;28;19925;-70
2023/04/16 07:19:34;;;;;;;;;;;;;;;-140.72;100.00;52849.47;5029949;28;19917;-70
2023/04/16 07:22:00;;;;;;;;;;;;;;;-140.72;100.00;52879.91;5030886;28;19917;-70
2023/04/16 07:24:25;;;;;;;;;;;;;;;-140.72;100.00;52843.38;5023911;28;19929;-70
2023/04/16 07:26:50;;;;;;;;;;;;;;;-140.72;100.00;52819.03;5012371;28;20485;-70
2023/04/16 07:29:15;;;;;;;;;;;;;;;-140.72;100.00;52855.56;5027785;28;20205;-70
2023/04/16 07:31:41;;;;;;;;;;;;;;;-140.72;100.00;52849.47;5028067;28;19950;-70
2023/04/16 07:34:06;;;;;;;;;;;;;;;-140.72;100.00;52861.66;5014651;28;19921;-70
2023/04/16 07:36:31;;;;;;;;;;;;;;;-140.72;100.00;52819.03;5028126;28;19917;-70
2023/04/16 07:38:56;;;;;;;;;;;;;;;-140.72;100.00;52837.28;5017449;28;19921;-68
2023/04/16 07:41:22;;;;;;;;;;;;;;;-140.72;100.00;52817.00;5016162;28;19991;-70
2023/04/16 07:43:47;;;;;;;;;;;;;;;-140.72;100.00;52829.19;5022829;28;20346;-69
2023/04/16 07:46:12;;;;;;;;;;;;;;;-140.72;100.00;52833.22;5013399;28;20394;-69
2023/04/16 07:48:38;;;;;;;;;;;;;;;-140.72;100.00;52821.06;5027867;28;19917;-69
2023/04/16 07:51:03;;;;;;;;;;;;;;;-140.72;100.00;52827.16;5019314;28;19948;-70
2023/04/16 07:53:28;;;;;;;;;;;;;;;-140.72;100.00;52812.94;5025742;28;20015;-71
2023/04/16 07:55:53;;;;;;;;;;;;;;;-140.72;100.00;52827.16;5029077;28;19921;-70
2023/04/16 07:58:22;;;;;;;;;;;;;;;-140.72;100.00;52776.41;5034697;28;19928;-71
2023/04/16 08:00:47;;;;;;;;;;;;;;;-140.72;100.00;52790.63;5031579;28;19917;-70
2023/04/16 08:03:14;;;;;;;;;;;;;;;-140.72;100.00;52790.63;5018465;28;19928;-70
2023/04/16 08:05:39;;;;;;;;;;;;;;;-140.72;100.00;52823.09;5032911;28;19917;-71
2023/04/16 08:08:05;;;;;;;;;;;;;;;-140.72;100.00;52835.25;5028093;28;20268;-70
2023/04/16 08:10:30;;;;;;;;;;;;;;;-140.72;100.00;52788.59;5030374;28;20329;-71
2023/04/16 08:12:55;;;;;;;;;;;;;;;-140.72;100.00;52800.75;5028895;28;19924;-71
2023/04/16 08:15:20;;;;;;;;;;;;;;;-140.72;100.00;52814.97;5022241;28;19964;-71
2023/04/16 08:17:46;;;;;;;;;;;;;;;-140.72;100.00;52829.19;5030825;28;19922;-70
2023/04/16 08:20:11;;;;;;;;;;;;;;;-140.72;100.00;52784.53;5022312;28;19928;-71
2023/04/16 08:22:36;;;;;;;;;;;;;;;-140.72;100.00;52808.88;5035218;28;19943;-71
2023/04/16 08:25:02;;;;;;;;;;;;;;;-140.72;100.00;52819.03;5024231;28;20332;-71
2023/04/16 08:27:27;;;;;;;;;;;;;;;-140.72;100.00;52784.53;5022366;28;19921;-71
2023/04/16 08:29:52;;;;;;;;;;;;;;;-140.72;100.00;52819.03;5031080;28;19952;-71
2023/04/16 08:32:18;;;;;;;;;;;;;;;-140.72;100.00;52784.53;5031891;28;19917;-71
2023/04/16 08:34:43;;;;;;;;;;;;;;;-140.72;100.00;52841.34;5019816;28;20004;-71
2023/04/16 08:37:08;;;;;;;;;;;;;;;-140.72;100.00;52829.19;5025082;28;20376;-71
2023/04/16 08:39:34;;;;;;;;;;;;;;;-140.72;100.00;52814.97;5028608;28;20294;-71
2023/04/16 08:42:01;;;;;;;;;;;;;;;-140.72;100.00;52808.88;5020018;28;19977;-71
2023/04/16 08:44:28;;;;;;;;;;;;;;;-140.72;100.00;52804.81;5026616;28;20367;-72
2023/04/16 08:46:57;;;;;;;;;;;;;;;-140.72;100.00;52814.97;5033055;28;20016;-71
2023/04/16 08:49:24;;;;;;;;;;;;;;;-140.72;100.00;52837.28;5072594;28;19949;-71
2023/04/16 08:51:50;;;;;;;;;;;;;;;-140.72;100.00;52784.53;5025441;28;19921;-71
2023/04/16 08:54:20;;;;;;;;;;;;;;;-140.72;100.00;52812.94;5023755;28;19921;-71
2023/04/16 08:56:46;;;;;;;;;;;;;;;-140.72;100.00;52788.59;5023835;28;20012;-71
2023/04/16 08:59:12;;;;;;;;;;;;;;;-140.72;100.00;52831.19;5031555;28;19921;-71
2023/04/16 09:01:38;;;;;;;;;;;;;;;-140.72;100.00;52806.84;5030500;28;19988;-70
2023/04/16 09:04:05;;;;;;;;;;;;;;;-140.72;100.00;52827.16;5028757;28;19990;-71
2023/04/16 09:06:31;;;;;;;;;;;;;;;-140.72;100.00;52825.13;5031677;28;20020;-71
2023/04/16 09:09:03;;;;;;;;;;;;;;;-140.72;100.00;52808.88;5024381;28;19921;-71
2023/04/16 09:11:29;;;;;;;;;;;;;;;-140.72;100.00;52786.56;5016010;28;19917;-69
2023/04/16 09:13:54;;;;;;;;;;;;;;;-140.72;100.00;52804.81;5032696;28;19942;-70
2023/04/16 09:16:20;;;;;;;;;;;;;;;-140.72;100.00;52810.91;5023939;28;19977;-70
2023/04/16 09:18:46;;;;;;;;;;;;;;;-140.72;100.00;52770.31;5025784;28;19969;-70
2023/04/16 09:21:12;;;;;;;;;;;;;;;-140.72;100.00;52817.00;5024743;28;19928;-70
2023/04/16 09:23:38;;;;;;;;;;;;;;;-140.72;100.00;52780.47;5028236;28;19917;-70
2023/04/16 09:26:04;;;;;;;;;;;;;;;-140.72;100.00;52780.47;5027141;28;20401;-70
2023/04/16 09:28:42;;;;;;;;;;;;;;;-140.72;100.00;52782.50;5024915;28;19918;-70
2023/04/16 09:34:10;;;;;;;;;;;;;;;-140.72;100.00;52758.16;5028372;28;19928;-72
2023/04/16 09:36:36;;;;;;;;;;;;;;;-140.72;100.00;52717.56;5031224;28;19925;-72
2023/04/16 09:39:02;;;;;;;;;;;;;;;-140.72;100.00;52821.06;5028737;28;19929;-71
2023/04/16 09:41:29;;;;;;;;;;;;;;;-140.72;100.00;52819.03;5023374;28;19918;-71
2023/04/16 09:43:58;;;;;;;;;;;;;;;-140.72;100.00;52776.41;5031905;28;19917;-74
2023/04/16 09:46:43;;;;;;;;;;;;;;;-140.72;100.00;52837.28;5031603;28;20401;-71
2023/04/16 09:49:09;;;;;;;;;;;;;;;-140.72;100.00;52798.72;5026979;28;19928;-74
2023/04/16 09:51:41;;;;;;;;;;;;;;;-140.72;100.00;52792.66;5023434;28;20004;-73
2023/04/16 09:54:07;;;;;;;;;;;;;;;-140.72;100.00;52796.72;5031827;28;20031;-74
2023/04/16 09:56:32;;;;;;;;;;;;;;;-140.72;100.00;52754.09;5031759;28;20415;-74
2023/04/16 09:59:01;;;;;;;;;;;;;;;-140.72;100.00;52782.50;5034522;28;19917;-74
2023/04/16 10:01:26;;;;;;;;;;;;;;;-140.72;100.00;52796.72;5027191;28;20019;-70
2023/04/16 10:03:59;;;;;;;;;;;;;;;-140.72;100.00;52812.94;5024055;28;20013;-72
2023/04/16 10:06:25;;;;;;;;;;;;;;;-140.72;100.00;52776.41;5028160;28;20423;-70
2023/04/16 10:08:51;;;;;;;;;;;;;;;-140.72;100.00;52796.72;5025407;28;19917;-70
2023/04/16 10:11:17;;;;;;;;;;;;;;;-140.72;100.00;52788.59;5031222;28;20020;-69
2023/04/16 10:13:50;;;;;;;;;;;;;;;-140.72;100.00;52800.75;5025286;28;19926;-69
2023/04/16 10:16:16;;;;;;;;;;;;;;;-140.72;100.00;52788.59;5027551;28;19978;-69
2023/04/16 10:18:55;;;;;;;;;;;;;;;-140.72;100.00;52772.34;5021038;28;19926;-69
2023/04/16 10:21:20;;;;;;;;;;;;;;;-140.72;100.00;52831.19;5029137;28;20456;-69
2023/04/16 10:23:57;;;;;;;;;;;;;;;-140.72;100.00;52790.63;5022664;28;19922;-70
2023/04/16 10:26:22;;;;;;;;;;;;;;;-140.72;100.00;52786.56;5026161;28;19949;-70
2023/04/16 10:28:48;;;;;;;;;;;;;;;-140.72;100.00;52784.53;5029077;28;19956;-70
2023/04/16 10:31:21;;;;;;;;;;;;;;;-140.72;100.00;52778.44;5032777;28;19998;-70
2023/04/16 10:33:46;;;;;;;;;;;;;;;-140.72;100.00;52735.81;5025572;28;19921;-70
2023/04/16 10:36:21;;;;;;;;;;;;;;;-140.72;100.00;52821.06;5032733;28;19928;-69
2023/04/16 10:38:54;;;;;;;;;;;;;;;-140.72;100.00;52776.41;5023618;28;19918;-70
2023/04/16 10:41:19;;;;;;;;;;;;;;;-140.72;100.00;52778.44;5032655;28;20379;-70
2023/04/16 10:44:13;;;;;;;;;;;;;;;-140.72;100.00;52794.69;5033083;28;20007;-70
2023/04/16 10:46:39;;;;;;;;;;;;;;;-140.72;100.00;52752.06;5024092;28;20308;-69
2023/04/16 10:49:16;;;;;;;;;;;;;;;-140.72;100.00;52739.88;5032754;28;21474;-70
2023/04/16 10:51:41;;;;;;;;;;;;;;;-140.72;100.00;52772.34;5028592;28;19921;-70
2023/04/16 10:54:06;;;;;;;;;;;;;;;-140.72;100.00;52792.66;5031908;28;20366;-69
2023/04/16 10:56:32;;;;;;;;;;;;;;;-140.72;100.00;52764.25;5030359;28;19924;-70
2023/04/16 10:58:58;;;;;;;;;;;;;;;-140.72;100.00;52772.34;5016473;28;19918;-70
2023/04/16 11:01:51;;;;;;;;;;;;;;;-140.72;100.00;52737.84;5027755;28;19950;-69
2023/04/16 11:04:20;;;;;;;;;;;;;;;-140.72;100.00;52756.13;5018705;28;19961;-70
2023/04/16 11:07:03;;;;;;;;;;;;;;;-140.72;100.00;52760.19;5030528;28;19931;-70
2023/04/16 11:10:01;;;;;;;;;;;;;;;-140.72;100.00;52800.75;5014424;28;20307;-69
2023/04/16 11:12:33;;;;;;;;;;;;;;;-140.72;100.00;52780.47;5027896;28;20225;-69
2023/04/16 11:15:03;;;;;;;;;;;;;;;-140.72;100.00;52772.34;5025524;28;19931;-69
2023/04/16 11:17:30;;;;;;;;;;;;;;;-140.72;100.00;52748.00;5029304;28;20314;-69
2023/04/16 11:19:56;;;;;;;;;;;;;;;-140.72;100.00;52784.53;5025240;28;19917;-69
2023/04/16 11:22:21;;;;;;;;;;;;;;;-140.72;100.00;52780.47;5040594;28;19929;-70
2023/04/16 11:24:46;;;;;;;;;;;;;;;-140.72;100.00;52788.59;5024622;28;19924;-69
2023/04/16 11:27:26;;;;;;;;;;;;;;;-140.72;100.00;52772.34;5031409;28;19921;-69
2023/04/16 11:29:58;;;;;;;;;;;;;;;-140.72;100.00;52812.94;5030967;28;20363;-69
2023/04/16 11:32:23;;;;;;;;;;;;;;;-140.72;100.00;52743.94;5027698;28;19918;-69
2023/04/16 11:34:48;;;;;;;;;;;;;;;-140.72;100.00;52788.59;5037994;28;19925;-70
2023/04/16 11:37:13;;;;;;;;;;;;;;;-140.72;100.00;52780.47;5024382;28;19925;-69
2023/04/16 11:39:49;;;;;;;;;;;;;;;-140.72;100.00;52784.53;5016707;28;20275;-74
2023/04/16 11:42:18;;;;;;;;;;;;;;;-140.72;100.00;52764.25;5020665;28;19921;-69
2023/04/16 11:44:43;;;;;;;;;;;;;;;-140.72;100.00;52774.38;5022779;28;19959;-69
2023/04/16 11:47:08;;;;;;;;;;;;;;;-140.72;100.00;52758.16;5031547;28;19964;-69
2023/04/16 11:49:33;;;;;;;;;;;;;;;-140.72;100.00;52745.97;5020273;28;19965;-69
2023/04/16 11:51:59;;;;;;;;;;;;;;;-140.72;100.00;52776.41;5022871;28;19940;-69
2023/04/16 11:54:39;;;;;;;;;;;;;;;-140.72;100.00;52796.72;5026861;28;20011;-71
2023/04/16 11:57:05;;;;;;;;;;;;;;;-140.72;100.00;52762.22;5024002;28;20291;-72
2023/04/16 11:59:30;;;;;;;;;;;;;;;-140.72;100.00;52733.78;5032511;28;19921;-72
2023/04/16 12:01:56;;;;;;;;;;;;;;;-140.72;100.00;52772.34;5030348;28;19917;-72
2023/04/16 12:04:23;;;;;;;;;;;;;;;-140.72;100.00;52780.47;5021170;28;19925;-72
2023/04/16 12:07:08;;;;;;;;;;;;;;;-140.72;100.00;52778.44;5021984;28;19921;-69
2023/04/16 12:09:36;;;;;;;;;;;;;;;-140.72;100.00;52733.78;5029116;28;20386;-70
2023/04/16 12:12:02;;;;;;;;;;;;;;;-140.72;100.00;52752.06;5014515;28;20392;-70
2023/04/16 12:14:28;;;;;;;;;;;;;;;-140.72;100.00;52788.59;5023014;28;19971;-70
2023/04/16 12:16:53;;;;;;;;;;;;;;;-140.72;100.00;52772.34;5027999;28;20344;-69
2023/04/16 12:19:18;;;;;;;;;;;;;;;-140.72;100.00;52756.13;5033467;28;19921;-69
2023/04/16 12:21:45;;;;;;;;;;;;;;;-140.72;100.00;52786.56;5028197;28;19935;-69